Aviation Digital Data Service (ADDS)

Output produced by TAFs form (2355 UTC 24 February 2018)
found at http://aviationweather.gov/adds/tafs/
 
KMTJ 242320Z 2500/2524 26009KT P6SM SCT070 BKN150 
     FM250300 16004KT P6SM SCT050 BKN070 
     FM250600 15005KT P6SM VCSH SCT040 OVC045 
     FM250800 15005KT P6SM SCT035 OVC050 
     FM251300 22004KT P6SM SCT030 OVC035 
     FM251800 31006KT P6SM FEW035 SCT070